createdAt,value
2022-11-14T00:00:00.000Z,13.37
2022-11-14T00:15:00.000Z,13.12
2022-11-14T00:30:00.000Z,12.81
2022-11-14T00:45:00.000Z,12.66
2022-11-14T01:00:00.000Z,12.92
2022-11-14T01:15:00.000Z,13.23
2022-11-14T01:30:00.000Z,13.67
2022-11-14T01:45:00.000Z,13.62
2022-11-14T02:00:00.000Z,13.49
2022-11-14T02:15:00.000Z,13.33
2022-11-14T02:30:00.000Z,13.08
2022-11-14T02:45:00.000Z,12.97
2022-11-14T03:00:00.000Z,12.91
2022-11-14T03:15:00.000Z,12.99
2022-11-14T03:30:00.000Z,12.61
2022-11-14T04:00:00.000Z,13.16
2022-11-14T04:00:00.000Z,13.26
2022-11-14T04:15:00.000Z,13.08
2022-11-14T04:30:00.000Z,12.85
2022-11-14T04:45:00.000Z,12.7
2022-11-14T05:00:00.000Z,12.63
2022-11-14T05:15:00.000Z,12.94
2022-11-14T05:30:00.000Z,13.1
2022-11-14T05:45:00.000Z,13.07
2022-11-14T06:00:00.000Z,11.18
2022-11-14T06:15:00.000Z,10.44
2022-11-14T06:30:00.000Z,10.43
2022-11-14T06:45:00.000Z,11.19
2022-11-14T07:00:00.000Z,11.89
2022-11-14T07:15:00.000Z,12.19
2022-11-14T07:30:00.000Z,12.74
2022-11-14T07:45:00.000Z,13.37
2022-11-14T08:00:00.000Z,14.72
2022-11-14T08:15:00.000Z,15.49
2022-11-14T08:30:00.000Z,15.48
2022-11-14T08:45:00.000Z,15.67
2022-11-14T09:00:00.000Z,18.96
2022-11-14T09:15:00.000Z,20.44
2022-11-14T09:30:00.000Z,20.5
2022-11-14T09:45:00.000Z,20.97
2022-11-14T10:00:00.000Z,21.41
2022-11-14T10:15:00.000Z,21.49
2022-11-14T10:30:00.000Z,21.69
2022-11-14T10:45:00.000Z,21.62
2022-11-14T11:00:00.000Z,22.1
2022-11-14T11:15:00.000Z,21.91
2022-11-14T11:30:00.000Z,21.31
2022-11-14T11:45:00.000Z,21.45
2022-11-14T12:00:00.000Z,21.49
2022-11-14T12:15:00.000Z,21.53
2022-11-14T12:30:00.000Z,20.78
2022-11-14T12:45:00.000Z,20.43
2022-11-14T13:00:00.000Z,19.56
2022-11-14T13:15:00.000Z,19.29
2022-11-14T13:30:00.000Z,19.17
2022-11-14T13:45:00.000Z,19.03
2022-11-14T14:00:00.000Z,18.76
2022-11-14T14:15:00.000Z,18.55
2022-11-14T14:30:00.000Z,18.02
2022-11-14T14:45:00.000Z,17.47
2022-11-14T15:00:00.000Z,16.76
2022-11-14T15:15:00.000Z,16.14
2022-11-14T15:30:00.000Z,15.74
2022-11-14T15:45:00.000Z,14.5
2022-11-14T16:00:00.000Z,13.77
2022-11-14T16:15:00.000Z,13.37
2022-11-14T16:30:00.000Z,13.02
2022-11-14T16:45:00.000Z,12.65
2022-11-14T17:00:00.000Z,12.31
2022-11-14T17:15:00.000Z,11.87
2022-11-14T17:30:00.000Z,11.49
2022-11-14T17:45:00.000Z,11.28
2022-11-14T18:00:00.000Z,11
2022-11-14T18:15:00.000Z,10.89
2022-11-14T18:30:00.000Z,10.4
2022-11-14T18:45:00.000Z,10.09
2022-11-14T19:00:00.000Z,9.97
2022-11-14T19:15:00.000Z,9.82
2022-11-14T19:30:00.000Z,9.67
2022-11-14T19:45:00.000Z,9.5
2022-11-14T20:00:00.000Z,9.48
2022-11-14T20:15:00.000Z,9.58
2022-11-14T20:30:00.000Z,9.8
2022-11-14T20:45:00.000Z,9.86
2022-11-14T21:00:00.000Z,9.87
2022-11-14T21:15:00.000Z,9.8
2022-11-14T21:30:00.000Z,9.71
2022-11-14T21:45:00.000Z,9.96
2022-11-14T22:00:00.000Z,9.77
2022-11-14T22:15:00.000Z,9.6
2022-11-14T22:30:00.000Z,9.54
2022-11-14T23:00:00.000Z,9.5
2022-11-14T23:00:00.000Z,9.53
2022-11-14T23:15:00.000Z,9.57
2022-11-14T23:30:00.000Z,9.47
2022-11-14T23:45:00.000Z,9.22
